createdAt,value
2023-02-03T00:03:42.723Z,4.28
2023-02-03T00:09:46.167Z,3.83
2023-02-03T00:15:49.681Z,4.13
2023-02-03T00:21:54.447Z,9.57
2023-02-03T00:27:57.962Z,5.60
2023-02-03T00:34:01.427Z,5.38
2023-02-03T00:40:06.585Z,5.55
2023-02-03T00:46:10.037Z,6.07
2023-02-03T00:52:13.457Z,6.63
2023-02-03T00:58:18.618Z,2.67
2023-02-03T01:04:22.150Z,2.33
2023-02-03T01:10:26.095Z,2.50
2023-02-03T01:16:31.714Z,4.05
2023-02-03T01:22:35.173Z,8.05
2023-02-03T01:28:38.723Z,4.10
2023-02-03T01:34:43.454Z,2.85
2023-02-03T01:40:46.944Z,2.80
2023-02-03T01:46:51.513Z,4.85
2023-02-03T01:52:59.044Z,5.45
2023-02-03T01:59:02.722Z,4.65
2023-02-03T02:05:07.714Z,5.53
2023-02-03T02:11:12.461Z,3.22
2023-02-03T02:17:22.739Z,2.65
2023-02-03T02:23:37.709Z,3.00
2023-02-03T02:29:59.843Z,1.45
2023-02-03T02:36:09.859Z,3.47
2023-02-03T02:42:17.469Z,2.15
2023-02-03T02:48:24.046Z,2.38
2023-02-03T02:54:29.839Z,0.90
2023-02-03T03:00:33.724Z,5.32
2023-02-03T03:06:39.465Z,2.30
2023-02-03T03:12:47.393Z,3.20
2023-02-03T03:18:53.090Z,3.10
2023-02-03T03:25:00.254Z,2.17
2023-02-03T03:31:05.264Z,2.30
2023-02-03T03:37:12.729Z,2.45
2023-02-03T03:43:17.568Z,2.65
2023-02-03T03:49:24.472Z,2.85
2023-02-03T03:55:29.564Z,2.83
2023-02-03T04:01:33.703Z,2.58
2023-02-03T04:07:42.994Z,2.88
2023-02-03T04:13:46.450Z,2.88
2023-02-03T04:19:50.080Z,4.22
2023-02-03T04:25:55.070Z,6.07
2023-02-03T04:31:58.501Z,5.95
2023-02-03T04:38:01.878Z,2.03
2023-02-03T04:44:06.886Z,1.92
2023-02-03T04:50:10.769Z,2.88
2023-02-03T04:56:15.686Z,0.93
2023-02-03T05:02:20.704Z,3.63
2023-02-03T05:08:24.433Z,3.17
2023-02-03T05:14:28.178Z,4.07
2023-02-03T05:20:33.025Z,1.38
2023-02-03T05:26:36.647Z,3.35
2023-02-03T05:32:40.059Z,3.90
2023-02-03T05:38:44.897Z,2.30
2023-02-03T05:44:48.326Z,2.33
2023-02-03T05:50:51.718Z,4.18
2023-02-03T05:56:56.505Z,4.03
2023-02-03T06:03:00.860Z,3.33
2023-02-03T06:09:05.728Z,2.92
2023-02-03T06:15:11.161Z,3.05
2023-02-03T06:21:14.627Z,5.18
2023-02-03T06:27:18.260Z,5.82
2023-02-03T06:33:23.460Z,9.30
2023-02-03T06:39:26.928Z,6.45
2023-02-03T06:45:30.321Z,9.73
2023-02-03T06:51:35.067Z,6.82
2023-02-03T06:57:44.323Z,2.17
2023-02-03T07:03:48.150Z,5.82
2023-02-03T07:09:53.167Z,6.32
2023-02-03T07:15:56.676Z,6.93
2023-02-03T07:22:00.205Z,4.38
2023-02-03T07:28:05.075Z,4.55
2023-02-03T07:34:08.603Z,3.58
2023-02-03T07:40:12.776Z,3.20
2023-02-03T07:46:17.705Z,6.15
2023-02-03T07:52:22.038Z,3.08
2023-02-03T07:58:25.569Z,5.93
2023-02-03T08:04:30.486Z,3.78
2023-02-03T08:10:33.962Z,5.00
2023-02-03T08:16:37.639Z,4.88
2023-02-03T08:22:42.845Z,5.10
2023-02-03T08:28:49.842Z,4.95
2023-02-03T08:34:54.224Z,4.90
2023-02-03T08:40:58.968Z,3.40
2023-02-03T08:47:03.701Z,4.97
2023-02-03T08:53:07.103Z,4.63
2023-02-03T08:59:11.969Z,3.47
2023-02-03T09:05:18.047Z,2.10
2023-02-03T09:11:21.653Z,2.00
2023-02-03T09:17:26.596Z,4.18
2023-02-03T09:23:29.971Z,3.22
2023-02-03T09:29:33.425Z,3.35
2023-02-03T09:35:38.177Z,3.42
2023-02-03T09:41:53.047Z,4.45
2023-02-03T09:47:58.853Z,3.92
2023-02-03T09:54:07.067Z,3.05
2023-02-03T10:00:16.425Z,4.72
2023-02-03T10:06:24.199Z,4.25
2023-02-03T10:12:36.922Z,5.20
2023-02-03T10:18:42.939Z,5.00
2023-02-03T10:24:49.383Z,5.80
2023-02-03T10:30:57.618Z,2.25
2023-02-03T10:37:02.851Z,3.75
2023-02-03T10:43:24.160Z,5.13
2023-02-03T10:49:30.138Z,5.72
2023-02-03T10:55:33.670Z,4.68
2023-02-03T11:01:42.002Z,3.75
2023-02-03T11:07:47.167Z,2.38
2023-02-03T11:13:55.124Z,2.92
2023-02-03T11:20:01.978Z,2.72
2023-02-03T11:26:15.344Z,4.30
2023-02-03T11:32:20.211Z,3.28
2023-02-03T11:38:36.685Z,2.58
2023-02-03T11:44:41.618Z,3.88
2023-02-03T11:50:48.208Z,2.95
2023-02-03T11:56:59.074Z,4.85
2023-02-03T12:03:31.395Z,3.47
2023-02-03T12:09:41.944Z,3.17
2023-02-03T12:15:51.110Z,2.10
2023-02-03T12:21:59.173Z,6.13
2023-02-03T12:28:08.764Z,4.30
2023-02-03T12:34:16.977Z,4.50
2023-02-03T12:40:23.999Z,3.00
2023-02-03T12:46:29.830Z,2.42
2023-02-03T12:52:35.340Z,2.97
2023-02-03T12:58:41.999Z,3.92
2023-02-03T13:04:48.507Z,4.20
2023-02-03T13:10:53.797Z,1.90
2023-02-03T13:17:00.489Z,3.90
2023-02-03T13:23:07.109Z,1.98
2023-02-03T13:29:25.411Z,2.42
2023-02-03T13:35:37.050Z,2.05
2023-02-03T13:41:44.783Z,1.92
2023-02-03T13:47:48.817Z,5.78
2023-02-03T13:54:00.594Z,4.68
2023-02-03T14:00:04.992Z,3.38
2023-02-03T14:06:12.329Z,3.03
2023-02-03T14:12:43.024Z,3.92
2023-02-03T14:18:48.151Z,6.35
2023-02-03T14:24:51.922Z,3.92
2023-02-03T14:31:16.110Z,4.15
2023-02-03T14:37:23.204Z,4.72
2023-02-03T14:43:32.977Z,6.07
2023-02-03T14:49:46.788Z,3.13
2023-02-03T14:55:56.949Z,3.90
2023-02-03T15:02:12.003Z,4.32
2023-02-03T15:08:36.182Z,4.97
2023-02-03T15:14:40.948Z,3.90
2023-02-03T15:20:48.281Z,4.65
2023-02-03T15:26:52.678Z,4.82
2023-02-03T15:33:03.106Z,2.95
2023-02-03T15:39:14.777Z,3.42
2023-02-03T15:45:23.575Z,3.88
2023-02-03T15:51:29.579Z,4.35
2023-02-03T15:57:34.626Z,3.15
2023-02-03T16:03:41.256Z,3.00
2023-02-03T16:09:46.103Z,5.60
2023-02-03T16:16:03.828Z,4.38
2023-02-03T16:22:07.536Z,4.18
2023-02-03T16:28:36.598Z,7.68
2023-02-03T16:34:57.566Z,4.55
2023-02-03T16:41:18.706Z,8.95
2023-02-03T16:47:44.060Z,9.48
2023-02-03T16:53:48.368Z,17.23
2023-02-03T16:59:51.961Z,10.38
2023-02-03T17:05:57.429Z,10.85
2023-02-03T17:12:03.815Z,10.18
2023-02-03T17:18:07.372Z,9.13
2023-02-03T17:24:12.540Z,8.85
2023-02-03T17:30:16.368Z,11.13
2023-02-03T17:36:21.656Z,8.07
2023-02-03T17:55:09.387Z,8.32
2023-02-03T18:01:16.286Z,5.55
2023-02-03T18:07:19.786Z,8.27
2023-02-03T18:13:26.199Z,9.73
2023-02-03T18:19:31.314Z,8.05
2023-02-03T18:25:36.596Z,7.70
2023-02-03T18:31:41.083Z,7.32
2023-02-03T18:37:46.049Z,11.27
2023-02-03T18:43:49.903Z,8.63
2023-02-03T18:49:53.356Z,9.30
2023-02-03T18:55:58.176Z,9.88
2023-02-03T19:02:03.211Z,12.48
2023-02-03T19:08:06.745Z,9.85
2023-02-03T19:14:11.607Z,8.82
2023-02-03T19:20:15.095Z,13.52
2023-02-03T19:26:18.798Z,10.40
2023-02-03T19:32:23.844Z,9.40
2023-02-03T19:38:27.611Z,10.07
2023-02-03T19:44:31.269Z,7.78
2023-02-03T19:50:37.450Z,10.48
2023-02-03T19:56:41.406Z,10.85
2023-02-03T20:02:44.954Z,13.20
2023-02-03T20:08:49.697Z,11.05
2023-02-03T20:14:53.425Z,12.52
2023-02-03T20:20:57.565Z,11.85
2023-02-03T20:27:02.949Z,9.88
2023-02-03T20:33:06.337Z,8.77
2023-02-03T20:39:16.420Z,13.02
2023-02-03T20:45:22.569Z,8.18
2023-02-03T20:51:26.903Z,14.88
2023-02-03T20:57:30.295Z,11.95
2023-02-03T21:03:53.201Z,11.43
2023-02-03T21:09:57.812Z,13.85
2023-02-03T21:16:03.461Z,9.77
2023-02-03T21:22:18.106Z,11.80
2023-02-03T21:28:25.620Z,11.77
2023-02-03T21:34:29.984Z,8.93
2023-02-03T21:40:35.549Z,10.23
2023-02-03T21:46:38.933Z,10.68
2023-02-03T21:52:42.344Z,12.13
2023-02-03T21:58:48.567Z,9.63
2023-02-03T22:04:52.008Z,13.38
2023-02-03T22:10:55.776Z,11.75
2023-02-03T22:17:00.570Z,12.32
2023-02-03T22:23:04.027Z,9.07
2023-02-03T22:29:07.615Z,11.57
2023-02-03T22:35:12.781Z,8.75
2023-02-03T22:41:16.175Z,11.88
2023-02-03T22:47:19.520Z,9.60
2023-02-03T22:53:24.261Z,9.70
2023-02-03T22:59:27.856Z,10.32
2023-02-03T23:05:31.557Z,12.48
2023-02-03T23:11:36.531Z,11.10
2023-02-03T23:17:40.023Z,9.18
2023-02-03T23:23:43.405Z,7.35
2023-02-03T23:29:48.157Z,7.68
2023-02-03T23:35:51.516Z,5.82
2023-02-03T23:41:55.156Z,4.57
2023-02-03T23:47:59.929Z,7.78
2023-02-03T23:54:03.745Z,4.28
